Terminal Aerodrome Forecast
Issued by NWS Upton, NY

Home | Current Version | Previous Version | Text Only | Print | Product List | Glossary On
Versions: 1 2 3 4 5 6 7 8 9 10 11 12 13 14 15 16 17 18 19 20 21 22 23 24 25 26 27 28 29 30 31 32
000
FTUS41 KOKX 230300 AAB
TAFEWR
TAF AMD
KEWR 230308Z 2303/2406 05007KT 4SM -RA BR OVC007
      TEMPO 2303/2305 6SM -RA BR OVC011
     FM231300 05009KT 3SM -RA BR BKN006 OVC009
     FM231800 02006KT 2SM -RADZ BR OVC006
     FM240200 04005KT 2SM -RA BR OVC004=

USA.gov is the U.S. government's official web portal to all federal, state and local government web resources and services.